createdAt,value
2018-11-29T00:01:55.817Z,5.43
2018-11-29T00:04:25.589Z,5.60
2018-11-29T00:07:10.865Z,5.23
2018-11-29T00:09:41.703Z,5.27
2018-11-29T00:12:11.988Z,5.17
2018-11-29T00:14:42.448Z,5.33
2018-11-29T00:17:13.048Z,5.07
2018-11-29T00:19:43.004Z,4.83
2018-11-29T00:22:13.117Z,5.17
2018-11-29T00:24:43.440Z,5.23
2018-11-29T00:27:13.561Z,5.13
2018-11-29T00:29:43.661Z,5.00
2018-11-29T00:32:14.313Z,5.00
2018-11-29T00:34:44.844Z,4.97
2018-11-29T00:37:15.985Z,4.83
2018-11-29T00:39:46.427Z,5.10
2018-11-29T00:42:17.290Z,5.00
2018-11-29T00:44:47.705Z,4.90
2018-11-29T00:47:18.298Z,4.87
2018-11-29T00:49:48.321Z,4.77
2018-11-29T00:52:18.545Z,4.50
2018-11-29T00:54:48.876Z,4.87
2018-11-29T00:57:19.297Z,4.63
2018-11-29T00:59:50.745Z,4.67
2018-11-29T01:02:21.277Z,4.90
2018-11-29T01:04:52.118Z,4.80
2018-11-29T01:07:22.645Z,4.80
2018-11-29T01:09:52.965Z,4.83
2018-11-29T01:12:23.089Z,4.30
2018-11-29T01:14:53.621Z,4.40
2018-11-29T01:17:24.144Z,4.20
2018-11-29T01:19:55.289Z,4.50
2018-11-29T01:22:25.818Z,4.50
2018-11-29T01:24:56.652Z,4.53
2018-11-29T01:27:27.484Z,4.50
2018-11-29T01:29:58.326Z,4.40
2018-11-29T01:32:28.549Z,4.13
2018-11-29T01:34:59.561Z,4.67
2018-11-29T01:37:30.222Z,4.10
2018-11-29T01:40:00.604Z,4.37
2018-11-29T01:42:31.280Z,4.20
2018-11-29T01:45:01.631Z,4.40
2018-11-29T01:47:32.029Z,4.10
2018-11-29T01:50:02.889Z,4.00
2018-11-29T01:52:33.477Z,3.80
2018-11-29T01:55:03.929Z,4.00
2018-11-29T01:57:34.578Z,3.73
2018-11-29T02:00:04.680Z,3.90
2018-11-29T02:02:35.650Z,3.83
2018-11-29T02:05:06.793Z,3.80
2018-11-29T02:07:36.881Z,3.90
2018-11-29T02:10:14.784Z,3.90
2018-11-29T02:12:45.625Z,3.90
2018-11-29T02:15:16.153Z,3.93
2018-11-29T02:17:46.136Z,3.83
2018-11-29T02:20:16.921Z,3.80
2018-11-29T02:22:47.609Z,3.87
2018-11-29T02:25:17.340Z,3.70
2018-11-29T02:27:47.873Z,3.73
2018-11-29T02:30:20.048Z,3.57
2018-11-29T02:32:50.600Z,3.60
2018-11-29T02:35:20.470Z,3.67
2018-11-29T02:37:50.706Z,3.50
2018-11-29T02:40:20.628Z,3.50
2018-11-29T02:42:51.132Z,3.77
2018-11-29T02:45:23.534Z,3.80
2018-11-29T02:47:53.645Z,3.40
2018-11-29T02:50:24.476Z,3.27
2018-11-29T02:52:54.702Z,3.60
2018-11-29T02:55:25.745Z,3.50
2018-11-29T02:57:56.344Z,3.67
2018-11-29T03:00:26.905Z,3.20
2018-11-29T03:02:57.921Z,3.53
2018-11-29T03:05:28.264Z,3.30
2018-11-29T03:07:58.800Z,3.37
2018-11-29T03:10:29.018Z,3.10
2018-11-29T03:12:59.330Z,3.53
2018-11-29T03:15:29.233Z,3.03
2018-11-29T03:17:59.685Z,3.30
2018-11-29T03:20:29.909Z,3.20
2018-11-29T03:23:00.335Z,3.23
2018-11-29T03:25:30.968Z,3.10
2018-11-29T03:28:01.499Z,3.10
2018-11-29T03:30:31.728Z,3.10
2018-11-29T03:33:02.202Z,2.80
2018-11-29T03:35:32.469Z,3.13
2018-11-29T03:38:02.877Z,3.20
2018-11-29T03:40:33.217Z,3.00
2018-11-29T03:43:03.748Z,2.93
2018-11-29T03:45:33.980Z,3.40
2018-11-29T03:48:04.509Z,3.10
2018-11-29T03:50:35.647Z,3.07
2018-11-29T03:53:06.477Z,3.10
2018-11-29T03:55:37.109Z,2.90
2018-11-29T03:58:07.837Z,2.50
2018-11-29T04:00:38.169Z,3.00
2018-11-29T04:03:08.374Z,2.93
2018-11-29T04:05:38.274Z,2.80
2018-11-29T04:08:08.702Z,3.00
2018-11-29T04:10:38.860Z,2.90
2018-11-29T04:13:09.287Z,2.90
2018-11-29T04:15:39.304Z,3.13
2018-11-29T04:18:09.418Z,2.87
2018-11-29T04:20:39.097Z,2.90
2018-11-29T04:23:09.391Z,3.17
2018-11-29T04:25:40.394Z,2.70
2018-11-29T04:28:10.522Z,2.73
2018-11-29T04:30:40.842Z,3.00
2018-11-29T04:33:11.058Z,2.70
2018-11-29T04:35:41.513Z,2.67
2018-11-29T04:38:11.810Z,2.80
2018-11-29T04:40:42.332Z,2.80
2018-11-29T04:43:12.866Z,2.73
2018-11-29T04:45:54.765Z,2.73
2018-11-29T04:50:55.649Z,2.70
2018-11-29T04:53:26.134Z,2.73
2018-11-29T04:55:56.873Z,2.77
2018-11-29T04:58:27.414Z,2.80
2018-11-29T05:00:57.709Z,2.70
2018-11-29T05:03:27.513Z,2.80
2018-11-29T05:05:58.072Z,2.67
2018-11-29T05:08:28.702Z,2.87
2018-11-29T05:10:59.128Z,2.67
2018-11-29T05:13:29.321Z,2.90
2018-11-29T05:15:59.310Z,2.80
2018-11-29T05:18:29.497Z,2.37
2018-11-29T05:21:00.632Z,2.60
2018-11-29T05:23:31.453Z,2.60
2018-11-29T05:26:02.308Z,2.63
2018-11-29T05:28:33.241Z,2.60
2018-11-29T05:31:03.977Z,2.87
2018-11-29T05:33:34.205Z,2.47
2018-11-29T05:36:04.816Z,2.40
2018-11-29T05:38:35.281Z,2.40
2018-11-29T05:41:05.486Z,2.60
2018-11-29T05:43:35.836Z,2.50
2018-11-29T05:46:05.313Z,2.60
2018-11-29T05:48:35.288Z,2.60
2018-11-29T05:51:05.426Z,2.60
2018-11-29T05:53:35.804Z,2.90
2018-11-29T05:56:06.413Z,2.80
2018-11-29T05:58:36.525Z,2.80
2018-11-29T06:01:25.076Z,3.10
2018-11-29T06:03:55.952Z,3.33
2018-11-29T06:06:27.070Z,3.43
2018-11-29T06:08:57.893Z,3.37
2018-11-29T06:11:28.208Z,3.87
2018-11-29T06:13:58.256Z,3.67
2018-11-29T06:16:28.864Z,3.60
2018-11-29T06:18:59.705Z,3.50
2018-11-29T06:21:30.236Z,3.40
2018-11-29T06:24:00.778Z,4.10
2018-11-29T06:26:31.918Z,4.00
2018-11-29T06:29:02.741Z,3.90
2018-11-29T06:31:33.885Z,3.90
2018-11-29T06:34:05.012Z,4.10
2018-11-29T06:36:36.284Z,3.87
2018-11-29T06:39:09.471Z,4.00
2018-11-29T06:41:39.999Z,3.83
2018-11-29T06:44:11.449Z,3.80
2018-11-29T06:46:42.073Z,3.63
2018-11-29T06:49:12.610Z,3.70
2018-11-29T06:51:43.641Z,4.00
2018-11-29T06:54:13.778Z,3.70
2018-11-29T06:56:44.201Z,3.23
2018-11-29T06:59:14.417Z,3.50
2018-11-29T07:04:14.164Z,3.30
2018-11-29T07:06:45.101Z,3.80
2018-11-29T07:09:15.469Z,3.47
2018-11-29T07:11:45.741Z,3.40
2018-11-29T07:14:15.888Z,3.60
2018-11-29T07:16:46.393Z,3.40
2018-11-29T07:19:15.813Z,3.33
2018-11-29T07:21:51.916Z,3.60
2018-11-29T07:24:22.394Z,3.60
2018-11-29T07:26:53.116Z,3.57
2018-11-29T07:29:23.329Z,3.43
2018-11-29T07:31:54.780Z,3.40
2018-11-29T07:34:24.417Z,3.60
2018-11-29T07:36:54.694Z,3.60
2018-11-29T07:39:25.148Z,3.60
2018-11-29T07:41:55.978Z,3.20
2018-11-29T07:44:26.505Z,3.33
2018-11-29T07:46:57.035Z,3.43
2018-11-29T07:49:27.257Z,3.40
2018-11-29T07:51:57.786Z,3.60
2018-11-29T07:54:28.315Z,3.50
2018-11-29T07:56:58.853Z,3.60
2018-11-29T07:59:29.610Z,3.60
2018-11-29T08:01:59.901Z,3.30
2018-11-29T08:04:30.438Z,3.50
2018-11-29T08:07:01.264Z,3.70
2018-11-29T08:09:32.414Z,3.50
2018-11-29T08:12:02.940Z,3.63
2018-11-29T08:14:33.784Z,3.60
2018-11-29T08:17:04.093Z,3.50
2018-11-29T08:19:34.845Z,3.70
2018-11-29T08:22:05.361Z,3.73
2018-11-29T08:24:36.513Z,3.50
2018-11-29T08:27:07.037Z,3.50
2018-11-29T08:29:37.578Z,3.80
2018-11-29T08:32:07.877Z,3.27
2018-11-29T08:34:37.950Z,3.63
2018-11-29T08:37:07.934Z,3.40
2018-11-29T08:39:38.452Z,3.70
2018-11-29T08:42:09.294Z,3.70
2018-11-29T08:44:40.239Z,3.57
2018-11-29T08:47:11.169Z,3.60
2018-11-29T08:49:41.116Z,3.67
2018-11-29T08:52:11.205Z,3.60
2018-11-29T08:54:41.546Z,3.30
2018-11-29T08:57:11.753Z,3.80
2018-11-29T08:59:41.680Z,3.53
2018-11-29T09:02:11.888Z,3.67
2018-11-29T09:04:42.319Z,3.70
2018-11-29T09:07:12.553Z,4.20
2018-11-29T09:09:42.861Z,4.20
2018-11-29T09:12:13.597Z,4.43
2018-11-29T09:14:43.952Z,4.50
2018-11-29T09:17:13.840Z,4.50
2018-11-29T09:19:44.257Z,4.80
2018-11-29T09:22:14.500Z,5.03
2018-11-29T09:24:44.866Z,4.67
2018-11-29T09:27:15.165Z,4.40
2018-11-29T09:29:45.462Z,4.80
2018-11-29T09:32:15.716Z,4.77
2018-11-29T09:34:46.003Z,4.70
2018-11-29T09:37:16.530Z,4.27
2018-11-29T09:39:47.065Z,4.57
2018-11-29T09:42:17.589Z,4.30
2018-11-29T09:44:48.420Z,4.27
2018-11-29T09:47:19.270Z,4.20
2018-11-29T09:49:49.570Z,3.93
2018-11-29T09:52:19.505Z,4.27
2018-11-29T09:54:50.242Z,3.97
2018-11-29T09:57:21.073Z,4.37
2018-11-29T09:59:51.553Z,3.93
2018-11-29T10:02:21.517Z,3.87
2018-11-29T10:04:52.657Z,4.00
2018-11-29T10:07:23.049Z,4.30
2018-11-29T10:09:53.104Z,4.13
2018-11-29T10:12:23.641Z,3.77
2018-11-29T10:14:54.166Z,3.87
2018-11-29T10:17:24.997Z,4.37
2018-11-29T10:19:55.345Z,3.80
2018-11-29T10:22:25.753Z,4.20
2018-11-29T10:24:56.585Z,3.60
2018-11-29T10:27:27.730Z,4.00
2018-11-29T10:29:58.873Z,3.97
2018-11-29T10:32:29.188Z,3.72
2018-11-29T10:34:59.947Z,3.70
2018-11-29T10:37:30.461Z,3.90
2018-11-29T10:40:00.070Z,3.77
2018-11-29T10:42:30.905Z,4.05
2018-11-29T10:45:01.627Z,3.98
2018-11-29T10:47:31.969Z,3.70
2018-11-29T10:50:02.460Z,3.90
2018-11-29T10:52:32.724Z,3.95
2018-11-29T10:55:02.937Z,3.90
2018-11-29T10:57:34.389Z,3.80
2018-11-29T11:00:06.302Z,3.60
2018-11-29T11:02:40.693Z,3.70
2018-11-29T11:05:11.204Z,3.73
2018-11-29T11:07:41.520Z,3.73
2018-11-29T11:10:11.640Z,3.70
2018-11-29T11:12:41.923Z,3.47
2018-11-29T11:15:11.909Z,3.63
2018-11-29T11:17:42.001Z,3.40
2018-11-29T11:20:12.846Z,3.50
2018-11-29T11:22:43.369Z,3.37
2018-11-29T11:25:14.185Z,3.70
2018-11-29T11:27:45.356Z,3.80
2018-11-29T11:30:18.382Z,3.57
2018-11-29T11:32:49.769Z,3.53
2018-11-29T11:35:20.311Z,3.70
2018-11-29T11:37:51.152Z,3.70
2018-11-29T11:40:20.765Z,3.30
2018-11-29T11:42:51.249Z,3.30
2018-11-29T11:45:21.597Z,3.40
2018-11-29T11:47:50.521Z,3.60
2018-11-29T11:50:25.244Z,3.60
2018-11-29T11:52:56.102Z,3.40
2018-11-29T11:55:29.933Z,3.40
2018-11-29T11:57:55.337Z,3.87
2018-11-29T12:00:26.419Z,3.37
2018-11-29T12:03:06.713Z,3.53
2018-11-29T12:05:37.417Z,3.47
2018-11-29T12:08:08.006Z,3.47
2018-11-29T12:10:38.433Z,3.20
2018-11-29T12:13:08.685Z,3.47
2018-11-29T12:15:39.225Z,3.53
2018-11-29T12:18:11.293Z,3.30
2018-11-29T12:20:41.618Z,3.30
2018-11-29T12:23:11.842Z,3.30
2018-11-29T12:25:42.261Z,3.40
2018-11-29T12:28:12.591Z,3.42
2018-11-29T12:30:44.685Z,3.53
2018-11-29T12:33:14.533Z,3.30
2018-11-29T12:35:44.372Z,3.37
2018-11-29T12:38:14.623Z,3.27
2018-11-29T12:40:44.825Z,3.10
2018-11-29T12:43:15.192Z,3.37
2018-11-29T12:45:45.611Z,3.40
2018-11-29T12:48:16.105Z,3.30
2018-11-29T12:50:46.942Z,3.63
2018-11-29T12:53:17.173Z,3.40
2018-11-29T12:55:47.220Z,3.27
2018-11-29T12:58:18.221Z,3.47
2018-11-29T13:00:48.772Z,3.40
2018-11-29T13:03:18.845Z,3.40
2018-11-29T13:05:49.197Z,3.63
2018-11-29T13:08:19.416Z,3.40
2018-11-29T13:10:50.253Z,3.50
2018-11-29T13:13:21.102Z,3.60
2018-11-29T13:15:51.616Z,3.20
2018-11-29T13:18:22.013Z,3.20
2018-11-29T13:21:01.589Z,3.57
2018-11-29T13:23:32.422Z,3.30
2018-11-29T13:26:03.261Z,3.40
2018-11-29T13:28:33.790Z,3.40
2018-11-29T13:31:04.620Z,3.70
2018-11-29T13:33:34.066Z,3.60
2018-11-29T13:36:04.761Z,3.43
2018-11-29T13:38:35.346Z,3.47
2018-11-29T13:41:05.525Z,3.50
2018-11-29T13:43:36.033Z,3.40
2018-11-29T13:46:06.261Z,3.33
2018-11-29T13:48:36.293Z,3.40
2018-11-29T13:51:06.225Z,3.30
2018-11-29T13:53:36.673Z,3.60
2018-11-29T13:56:07.822Z,3.60
2018-11-29T13:58:38.353Z,3.40
2018-11-29T14:01:08.541Z,3.43
2018-11-29T14:03:39.663Z,3.43
2018-11-29T14:06:09.880Z,3.50
2018-11-29T14:08:39.853Z,3.50
2018-11-29T14:11:10.153Z,3.50
2018-11-29T14:13:40.553Z,3.40
2018-11-29T14:16:10.762Z,3.60
2018-11-29T14:18:41.166Z,3.40
2018-11-29T14:21:11.828Z,3.50
2018-11-29T14:23:42.053Z,3.33
2018-11-29T14:26:12.885Z,3.40
2018-11-29T14:28:43.421Z,3.30
2018-11-29T14:31:13.958Z,3.67
2018-11-29T14:33:44.820Z,3.40
2018-11-29T14:36:15.017Z,3.57
2018-11-29T14:38:46.161Z,3.30
2018-11-29T14:41:17.601Z,3.63
2018-11-29T14:43:48.137Z,3.60
2018-11-29T14:46:18.486Z,3.53
2018-11-29T14:48:47.412Z,3.70
2018-11-29T14:51:17.565Z,3.80
2018-11-29T14:53:48.405Z,3.70
2018-11-29T14:56:18.625Z,3.43
2018-11-29T14:58:49.006Z,3.70
2018-11-29T15:01:19.680Z,3.70
2018-11-29T15:03:50.538Z,3.80
2018-11-29T15:06:20.750Z,3.77
2018-11-29T15:08:51.582Z,3.50
2018-11-29T15:11:22.133Z,4.30
2018-11-29T15:13:53.258Z,4.40
2018-11-29T15:16:23.478Z,4.20
2018-11-29T15:18:54.170Z,4.40
2018-11-29T15:21:24.349Z,4.20
2018-11-29T15:23:54.769Z,3.97
2018-11-29T15:26:25.439Z,4.40
2018-11-29T15:28:55.809Z,4.50
2018-11-29T15:31:26.964Z,4.27
2018-11-29T15:33:57.444Z,4.53
2018-11-29T15:36:27.710Z,4.30
2018-11-29T15:38:58.238Z,4.57
2018-11-29T15:41:28.665Z,4.30
2018-11-29T15:43:58.985Z,4.03
2018-11-29T15:46:28.905Z,4.20
2018-11-29T15:49:00.219Z,4.43
2018-11-29T15:51:29.664Z,4.33
2018-11-29T15:54:00.181Z,4.20
2018-11-29T15:56:30.716Z,4.83
2018-11-29T15:59:01.277Z,4.43
2018-11-29T16:01:31.466Z,4.50
2018-11-29T16:04:01.688Z,4.60
2018-11-29T16:06:32.217Z,4.20
2018-11-29T16:09:03.038Z,4.53
2018-11-29T16:11:33.587Z,4.47
2018-11-29T16:14:04.149Z,4.50
2018-11-29T16:16:34.779Z,4.40
2018-11-29T16:19:04.861Z,4.90
2018-11-29T16:21:35.400Z,4.30
2018-11-29T16:24:05.920Z,4.40
2018-11-29T16:26:37.067Z,4.30
2018-11-29T16:29:07.828Z,4.20
2018-11-29T16:31:38.234Z,4.23
2018-11-29T16:34:08.964Z,4.60
2018-11-29T16:36:39.195Z,4.37
2018-11-29T16:39:09.729Z,4.80
2018-11-29T16:41:40.859Z,4.27
2018-11-29T16:44:11.380Z,4.77
2018-11-29T16:46:41.852Z,4.30
2018-11-29T16:49:11.346Z,4.60
2018-11-29T16:51:41.452Z,4.13
2018-11-29T16:54:12.273Z,4.50
2018-11-29T16:56:43.681Z,4.07
2018-11-29T16:59:13.754Z,4.67
2018-11-29T17:01:43.636Z,4.60
2018-11-29T17:04:13.841Z,4.53
2018-11-29T17:06:44.146Z,4.80
2018-11-29T17:09:14.485Z,4.60
2018-11-29T17:11:44.570Z,4.30
2018-11-29T17:14:15.887Z,4.77
2018-11-29T17:16:46.112Z,4.50
2018-11-29T17:19:16.642Z,4.50
2018-11-29T17:21:46.866Z,4.47
2018-11-29T17:24:17.499Z,4.70
2018-11-29T17:26:47.930Z,4.43
2018-11-29T17:29:18.452Z,4.80
2018-11-29T17:31:49.008Z,4.90
2018-11-29T17:34:19.518Z,4.80
2018-11-29T17:36:49.664Z,4.80
2018-11-29T17:39:20.066Z,4.57
2018-11-29T17:41:50.017Z,4.40
2018-11-29T17:44:20.401Z,4.27
2018-11-29T17:46:50.465Z,4.47
2018-11-29T17:49:21.150Z,4.57
2018-11-29T17:51:53.743Z,4.90
2018-11-29T17:54:21.805Z,4.70
2018-11-29T17:56:52.430Z,4.57
2018-11-29T17:59:22.785Z,4.93
2018-11-29T18:01:53.793Z,4.90
2018-11-29T18:04:24.644Z,4.50
2018-11-29T18:06:54.858Z,4.90
2018-11-29T18:09:25.166Z,4.73
2018-11-29T18:11:55.913Z,5.00
2018-11-29T18:14:26.463Z,4.57
2018-11-29T18:16:56.929Z,4.30
2018-11-29T18:19:27.211Z,4.50
2018-11-29T18:21:58.037Z,4.73
2018-11-29T18:24:28.864Z,4.90
2018-11-29T18:26:59.297Z,4.60
2018-11-29T18:29:29.924Z,5.03
2018-11-29T18:32:00.150Z,5.20
2018-11-29T18:34:31.288Z,4.73
2018-11-29T18:37:01.509Z,4.83
2018-11-29T18:39:31.845Z,4.97
2018-11-29T18:42:01.977Z,5.00
2018-11-29T18:44:31.890Z,4.50
2018-11-29T18:47:02.573Z,5.13
2018-11-29T18:49:32.929Z,4.80
2018-11-29T18:52:03.466Z,4.90
2018-11-29T18:54:34.679Z,5.47
2018-11-29T18:57:03.698Z,4.90
2018-11-29T18:59:34.130Z,5.17
2018-11-29T19:02:04.906Z,5.00
2018-11-29T19:04:34.974Z,4.93
2018-11-29T19:07:05.765Z,4.70
2018-11-29T19:09:36.257Z,5.50
2018-11-29T19:12:07.392Z,4.97
2018-11-29T19:14:38.012Z,5.43
2018-11-29T19:17:08.752Z,5.10
2018-11-29T19:19:39.592Z,5.10
2018-11-29T19:22:10.425Z,5.03
2018-11-29T19:24:40.667Z,5.33
2018-11-29T19:27:11.500Z,5.37
2018-11-29T19:29:42.635Z,5.27
2018-11-29T19:32:13.584Z,4.80
2018-11-29T19:34:43.814Z,4.97
2018-11-29T19:37:14.057Z,5.03
2018-11-29T19:39:45.866Z,5.13
2018-11-29T19:42:16.038Z,5.13
2018-11-29T19:44:46.580Z,5.30
2018-11-29T19:47:17.048Z,5.33
2018-11-29T19:49:47.272Z,5.33
2018-11-29T19:52:17.493Z,5.00
2018-11-29T19:54:47.924Z,5.70
2018-11-29T19:57:19.193Z,5.47
2018-11-29T19:59:49.766Z,5.20
2018-11-29T20:02:20.701Z,5.23
2018-11-29T20:04:51.383Z,5.10
2018-11-29T20:07:21.934Z,5.20
2018-11-29T20:09:52.273Z,5.17
2018-11-29T20:12:22.337Z,5.10
2018-11-29T20:17:22.478Z,5.30
2018-11-29T20:19:53.006Z,5.60
2018-11-29T20:22:23.229Z,5.50
2018-11-29T20:24:53.445Z,5.23
2018-11-29T20:27:24.501Z,5.30
2018-11-29T20:32:24.216Z,5.27
2018-11-29T20:34:54.337Z,5.40
2018-11-29T20:37:24.907Z,5.37
2018-11-29T20:39:56.346Z,5.30
2018-11-29T20:42:27.260Z,5.07
2018-11-29T20:44:57.295Z,5.30
2018-11-29T20:47:28.218Z,5.20
2018-11-29T20:49:59.998Z,5.23
2018-11-29T20:52:31.747Z,5.40
2018-11-29T20:55:03.528Z,5.13
2018-11-29T20:57:34.275Z,5.60
2018-11-29T21:00:06.050Z,5.33
2018-11-29T21:02:36.002Z,5.00
2018-11-29T21:05:07.884Z,5.20
2018-11-29T21:07:38.092Z,5.13
2018-11-29T21:10:19.603Z,5.40
2018-11-29T21:12:50.094Z,5.10
2018-11-29T21:15:21.340Z,4.93
2018-11-29T21:17:52.693Z,5.00
2018-11-29T21:20:23.326Z,5.13
2018-11-29T21:22:54.379Z,5.10
2018-11-29T21:25:26.136Z,5.07
2018-11-29T21:27:58.061Z,5.30
2018-11-29T21:30:30.303Z,4.80
2018-11-29T21:33:00.630Z,5.50
2018-11-29T21:35:31.321Z,5.50
2018-11-29T21:38:06.584Z,4.97
2018-11-29T21:40:37.282Z,5.03
2018-11-29T21:43:07.596Z,5.20
2018-11-29T21:45:37.435Z,5.20
2018-11-29T21:48:07.043Z,5.30
2018-11-29T21:50:37.368Z,5.27
2018-11-29T21:53:08.463Z,5.13
2018-11-29T21:55:38.921Z,5.43
2018-11-29T21:58:09.756Z,5.37
2018-11-29T22:00:40.284Z,5.30
2018-11-29T22:03:10.821Z,5.47
2018-11-29T22:05:41.654Z,5.10
2018-11-29T22:08:11.877Z,5.63
2018-11-29T22:10:42.093Z,5.37
2018-11-29T22:13:13.237Z,4.90
2018-11-29T22:15:43.381Z,5.03
2018-11-29T22:18:19.784Z,5.23
2018-11-29T22:20:59.420Z,5.33
2018-11-29T22:23:30.225Z,5.50
2018-11-29T22:26:01.633Z,5.50
2018-11-29T22:28:31.890Z,5.43
2018-11-29T22:31:02.309Z,5.20
2018-11-29T22:33:32.509Z,5.17
2018-11-29T22:36:03.380Z,5.30
2018-11-29T22:38:33.582Z,5.40
2018-11-29T22:41:04.729Z,5.40
2018-11-29T22:43:35.610Z,5.30
2018-11-29T22:46:06.029Z,5.40
2018-11-29T22:48:36.150Z,5.20
2018-11-29T22:51:06.265Z,4.77
2018-11-29T22:56:05.239Z,4.90
2018-11-29T22:58:35.805Z,5.10
2018-11-29T23:01:12.166Z,5.40
2018-11-29T23:03:42.270Z,5.50
2018-11-29T23:06:12.614Z,5.00
2018-11-29T23:08:42.598Z,5.10
2018-11-29T23:11:12.929Z,5.50
2018-11-29T23:13:43.059Z,5.10
2018-11-29T23:16:14.285Z,5.27
2018-11-29T23:18:44.495Z,5.10
2018-11-29T23:21:15.037Z,5.20
2018-11-29T23:23:45.600Z,5.50
2018-11-29T23:26:16.405Z,4.93
2018-11-29T23:28:46.933Z,4.97
2018-11-29T23:31:17.463Z,5.33
2018-11-29T23:33:48.020Z,5.03
2018-11-29T23:36:18.247Z,5.10
2018-11-29T23:38:49.049Z,5.37
2018-11-29T23:41:19.581Z,4.80
2018-11-29T23:43:49.912Z,5.33
2018-11-29T23:46:20.025Z,4.93
2018-11-29T23:48:50.926Z,4.93
2018-11-29T23:51:20.920Z,5.03
2018-11-29T23:53:51.306Z,5.13
2018-11-29T23:56:22.148Z,5.30
2018-11-29T23:58:52.673Z,5.20
